Aviation Digital Data Service (ADDS)

Output produced by METARs form (1151 UTC 08 December 2016)
found at http://aviationweather.gov/adds/metars/
 
KGSP 081132Z 0812/0912 29004KT P6SM OVC005 
     FM081400 34007KT P6SM BKN020 
     FM081500 34008KT P6SM OVC040 
     FM082000 33010G16KT P6SM SCT150 
     FM090400 34006KT P6SM SCT150